Bemis Heights, New York
Current Conditions -  °F | °C
As of 5:51 PM on Sunday 21 Dec 2014 (Local Time) from KALB Reporting Station
Overcast Overcast  
Wind Chill: -1°   Ceiling: 3000
Heat Index: -1°   Visibility: 10mi
Dew Point: -5°   Wind: 3mph
Humidity: 72%   Direction: 20°NNE
Pressure: 30.35"   Gusts: NA
Location:  43.0236°N, 73.676°W
Report Text: KALB 212251Z 02003KT 10SM OVC030 M01/M05 A3035 RMK AO2 SLP280 T10061050
Loading
Personal Weather Stations






























Interactive Weather Map New forecast layout! Learn more

10-Day Weather Forecast

Advertisements
Track Severe Weather on mobile